sensor_id;sensor_type;location;lat;lon;timestamp;P1;durP1;ratioP1;P2;durP2;ratioP2
75289;SDS011;63883;48.996;20.804;2022-11-24T00:01:14;30.92;;;15.05;;
75289;SDS011;63883;48.996;20.804;2022-11-24T00:03:44;29.70;;;14.30;;
75289;SDS011;63883;48.996;20.804;2022-11-24T00:06:12;30.25;;;14.38;;
75289;SDS011;63883;48.996;20.804;2022-11-24T00:08:40;28.90;;;15.73;;
75289;SDS011;63883;48.996;20.804;2022-11-24T00:11:08;29.30;;;14.30;;
75289;SDS011;63883;48.996;20.804;2022-11-24T00:13:36;28.30;;;14.18;;
75289;SDS011;63883;48.996;20.804;2022-11-24T00:18:34;30.35;;;14.88;;
75289;SDS011;63883;48.996;20.804;2022-11-24T00:20:59;27.15;;;13.20;;
75289;SDS011;63883;48.996;20.804;2022-11-24T00:23:25;28.45;;;14.27;;
75289;SDS011;63883;48.996;20.804;2022-11-24T00:25:51;27.83;;;14.02;;
75289;SDS011;63883;48.996;20.804;2022-11-24T00:28:17;29.88;;;14.43;;
75289;SDS011;63883;48.996;20.804;2022-11-24T00:30:43;28.63;;;14.38;;
75289;SDS011;63883;48.996;20.804;2022-11-24T00:33:08;27.35;;;13.70;;
75289;SDS011;63883;48.996;20.804;2022-11-24T00:35:34;27.02;;;12.90;;
75289;SDS011;63883;48.996;20.804;2022-11-24T00:38:00;29.45;;;14.38;;
75289;SDS011;63883;48.996;20.804;2022-11-24T00:40:25;31.08;;;13.93;;
75289;SDS011;63883;48.996;20.804;2022-11-24T00:42:51;27.10;;;13.60;;
75289;SDS011;63883;48.996;20.804;2022-11-24T00:45:17;29.13;;;13.77;;
75289;SDS011;63883;48.996;20.804;2022-11-24T00:47:43;28.52;;;13.80;;
75289;SDS011;63883;48.996;20.804;2022-11-24T00:50:08;27.77;;;13.38;;
75289;SDS011;63883;48.996;20.804;2022-11-24T00:52:34;28.52;;;13.15;;
75289;SDS011;63883;48.996;20.804;2022-11-24T00:55:00;31.98;;;15.30;;
75289;SDS011;63883;48.996;20.804;2022-11-24T00:57:26;32.35;;;14.70;;
75289;SDS011;63883;48.996;20.804;2022-11-24T00:59:51;32.53;;;14.60;;
75289;SDS011;63883;48.996;20.804;2022-11-24T01:02:17;33.63;;;17.00;;
75289;SDS011;63883;48.996;20.804;2022-11-24T01:04:42;34.25;;;16.55;;
75289;SDS011;63883;48.996;20.804;2022-11-24T01:07:08;30.65;;;16.75;;
75289;SDS011;63883;48.996;20.804;2022-11-24T01:09:34;34.97;;;17.38;;
75289;SDS011;63883;48.996;20.804;2022-11-24T01:12:00;36.10;;;17.35;;
75289;SDS011;63883;48.996;20.804;2022-11-24T01:14:25;35.38;;;17.67;;
75289;SDS011;63883;48.996;20.804;2022-11-24T01:16:52;33.50;;;17.27;;
75289;SDS011;63883;48.996;20.804;2022-11-24T01:19:18;34.38;;;17.20;;
75289;SDS011;63883;48.996;20.804;2022-11-24T01:21:44;34.63;;;16.13;;
75289;SDS011;63883;48.996;20.804;2022-11-24T01:24:10;30.17;;;15.68;;
75289;SDS011;63883;48.996;20.804;2022-11-24T01:26:37;34.05;;;17.10;;
75289;SDS011;63883;48.996;20.804;2022-11-24T01:29:03;31.00;;;15.70;;
75289;SDS011;63883;48.996;20.804;2022-11-24T01:31:29;36.00;;;17.25;;
75289;SDS011;63883;48.996;20.804;2022-11-24T01:33:56;37.03;;;17.88;;
75289;SDS011;63883;48.996;20.804;2022-11-24T01:36:23;33.03;;;16.25;;
75289;SDS011;63883;48.996;20.804;2022-11-24T01:38:48;35.88;;;18.13;;
75289;SDS011;63883;48.996;20.804;2022-11-24T01:41:15;37.88;;;17.65;;
75289;SDS011;63883;48.996;20.804;2022-11-24T01:43:43;33.95;;;17.15;;
75289;SDS011;63883;48.996;20.804;2022-11-24T01:51:26;27.33;;;14.15;;
75289;SDS011;63883;48.996;20.804;2022-11-24T01:53:56;30.80;;;14.50;;
75289;SDS011;63883;48.996;20.804;2022-11-24T01:56:26;31.63;;;15.90;;
75289;SDS011;63883;48.996;20.804;2022-11-24T01:58:55;31.45;;;15.38;;
75289;SDS011;63883;48.996;20.804;2022-11-24T02:01:23;31.88;;;16.05;;
75289;SDS011;63883;48.996;20.804;2022-11-24T02:03:49;34.63;;;16.15;;
75289;SDS011;63883;48.996;20.804;2022-11-24T02:06:18;33.00;;;16.15;;
75289;SDS011;63883;48.996;20.804;2022-11-24T02:08:51;32.38;;;15.60;;
75289;SDS011;63883;48.996;20.804;2022-11-24T02:11:23;32.17;;;14.88;;
75289;SDS011;63883;48.996;20.804;2022-11-24T02:13:53;33.13;;;15.00;;
75289;SDS011;63883;48.996;20.804;2022-11-24T02:16:20;33.72;;;15.00;;
75289;SDS011;63883;48.996;20.804;2022-11-24T02:18:46;33.75;;;16.13;;
75289;SDS011;63883;48.996;20.804;2022-11-24T02:21:12;33.95;;;16.27;;
75289;SDS011;63883;48.996;20.804;2022-11-24T02:26:43;30.38;;;14.52;;
75289;SDS011;63883;48.996;20.804;2022-11-24T02:31:40;30.80;;;14.10;;
75289;SDS011;63883;48.996;20.804;2022-11-24T02:34:11;31.95;;;14.75;;
75289;SDS011;63883;48.996;20.804;2022-11-24T02:36:37;31.52;;;14.23;;
75289;SDS011;63883;48.996;20.804;2022-11-24T02:39:04;32.72;;;15.40;;
75289;SDS011;63883;48.996;20.804;2022-11-24T02:41:34;31.42;;;14.48;;
75289;SDS011;63883;48.996;20.804;2022-11-24T02:44:00;30.30;;;14.98;;
75289;SDS011;63883;48.996;20.804;2022-11-24T02:46:26;30.23;;;14.68;;
75289;SDS011;63883;48.996;20.804;2022-11-24T02:48:52;32.38;;;15.23;;
75289;SDS011;63883;48.996;20.804;2022-11-24T02:51:18;32.10;;;16.25;;
75289;SDS011;63883;48.996;20.804;2022-11-24T02:53:44;31.90;;;15.00;;
75289;SDS011;63883;48.996;20.804;2022-11-24T02:56:10;29.60;;;14.73;;
75289;SDS011;63883;48.996;20.804;2022-11-24T02:58:35;32.05;;;15.43;;
75289;SDS011;63883;48.996;20.804;2022-11-24T03:01:01;33.10;;;14.82;;
75289;SDS011;63883;48.996;20.804;2022-11-24T03:03:27;31.88;;;15.55;;
75289;SDS011;63883;48.996;20.804;2022-11-24T03:05:53;34.08;;;16.05;;
75289;SDS011;63883;48.996;20.804;2022-11-24T03:08:19;33.45;;;15.32;;
75289;SDS011;63883;48.996;20.804;2022-11-24T03:10:45;34.28;;;16.08;;
75289;SDS011;63883;48.996;20.804;2022-11-24T03:13:10;37.05;;;16.25;;
75289;SDS011;63883;48.996;20.804;2022-11-24T03:15:36;34.03;;;16.35;;
75289;SDS011;63883;48.996;20.804;2022-11-24T03:18:02;37.15;;;17.05;;
75289;SDS011;63883;48.996;20.804;2022-11-24T03:20:28;34.15;;;16.25;;
75289;SDS011;63883;48.996;20.804;2022-11-24T03:22:55;34.70;;;16.52;;
75289;SDS011;63883;48.996;20.804;2022-11-24T03:25:21;33.65;;;16.10;;
75289;SDS011;63883;48.996;20.804;2022-11-24T03:27:46;35.22;;;15.88;;
75289;SDS011;63883;48.996;20.804;2022-11-24T03:30:12;32.17;;;15.93;;
75289;SDS011;63883;48.996;20.804;2022-11-24T03:32:38;35.63;;;16.98;;
75289;SDS011;63883;48.996;20.804;2022-11-24T03:35:06;36.53;;;16.88;;
75289;SDS011;63883;48.996;20.804;2022-11-24T03:37:32;34.88;;;15.70;;
75289;SDS011;63883;48.996;20.804;2022-11-24T03:39:58;34.80;;;16.45;;
75289;SDS011;63883;48.996;20.804;2022-11-24T03:42:23;38.60;;;17.08;;
75289;SDS011;63883;48.996;20.804;2022-11-24T03:44:49;35.75;;;15.88;;
75289;SDS011;63883;48.996;20.804;2022-11-24T03:47:15;40.45;;;18.00;;
75289;SDS011;63883;48.996;20.804;2022-11-24T03:49:41;35.85;;;16.02;;
75289;SDS011;63883;48.996;20.804;2022-11-24T03:52:07;31.38;;;14.27;;
75289;SDS011;63883;48.996;20.804;2022-11-24T03:54:33;31.80;;;14.93;;
75289;SDS011;63883;48.996;20.804;2022-11-24T03:56:58;58.28;;;25.35;;
75289;SDS011;63883;48.996;20.804;2022-11-24T03:59:24;40.38;;;18.33;;
75289;SDS011;63883;48.996;20.804;2022-11-24T04:01:50;36.53;;;15.88;;
75289;SDS011;63883;48.996;20.804;2022-11-24T04:04:16;35.10;;;16.05;;
75289;SDS011;63883;48.996;20.804;2022-11-24T04:06:41;37.45;;;16.27;;
75289;SDS011;63883;48.996;20.804;2022-11-24T04:09:07;32.33;;;15.63;;
75289;SDS011;63883;48.996;20.804;2022-11-24T04:11:33;35.50;;;15.38;;
75289;SDS011;63883;48.996;20.804;2022-11-24T04:14:17;35.97;;;15.63;;
75289;SDS011;63883;48.996;20.804;2022-11-24T04:16:43;34.25;;;17.27;;
75289;SDS011;63883;48.996;20.804;2022-11-24T04:19:09;32.75;;;15.82;;
75289;SDS011;63883;48.996;20.804;2022-11-24T04:21:34;32.17;;;15.00;;
75289;SDS011;63883;48.996;20.804;2022-11-24T04:24:00;33.88;;;15.50;;
75289;SDS011;63883;48.996;20.804;2022-11-24T04:26:27;28.73;;;14.88;;
75289;SDS011;63883;48.996;20.804;2022-11-24T04:28:53;33.90;;;16.23;;
75289;SDS011;63883;48.996;20.804;2022-11-24T04:31:18;32.95;;;15.07;;
75289;SDS011;63883;48.996;20.804;2022-11-24T04:33:44;36.22;;;16.00;;
75289;SDS011;63883;48.996;20.804;2022-11-24T04:36:10;38.63;;;17.60;;
75289;SDS011;63883;48.996;20.804;2022-11-24T04:38:35;36.65;;;16.55;;
75289;SDS011;63883;48.996;20.804;2022-11-24T04:41:01;34.63;;;15.38;;
75289;SDS011;63883;48.996;20.804;2022-11-24T04:43:28;35.50;;;16.00;;
75289;SDS011;63883;48.996;20.804;2022-11-24T04:45:54;33.83;;;15.63;;
75289;SDS011;63883;48.996;20.804;2022-11-24T04:48:20;33.30;;;16.27;;
75289;SDS011;63883;48.996;20.804;2022-11-24T04:50:46;34.17;;;15.52;;
75289;SDS011;63883;48.996;20.804;2022-11-24T04:53:12;35.75;;;16.25;;
75289;SDS011;63883;48.996;20.804;2022-11-24T04:55:38;39.35;;;16.90;;
75289;SDS011;63883;48.996;20.804;2022-11-24T04:58:08;37.28;;;16.85;;
75289;SDS011;63883;48.996;20.804;2022-11-24T05:00:34;38.95;;;16.50;;
75289;SDS011;63883;48.996;20.804;2022-11-24T05:03:00;37.20;;;16.67;;
75289;SDS011;63883;48.996;20.804;2022-11-24T05:05:26;35.72;;;15.43;;
75289;SDS011;63883;48.996;20.804;2022-11-24T05:07:52;38.30;;;16.63;;
75289;SDS011;63883;48.996;20.804;2022-11-24T05:10:18;34.75;;;15.18;;
75289;SDS011;63883;48.996;20.804;2022-11-24T05:13:07;31.05;;;14.38;;
75289;SDS011;63883;48.996;20.804;2022-11-24T05:15:38;33.85;;;16.00;;
75289;SDS011;63883;48.996;20.804;2022-11-24T05:18:06;34.92;;;16.73;;
75289;SDS011;63883;48.996;20.804;2022-11-24T05:20:32;38.67;;;17.58;;
75289;SDS011;63883;48.996;20.804;2022-11-24T05:23:05;32.85;;;15.55;;
75289;SDS011;63883;48.996;20.804;2022-11-24T05:25:32;40.08;;;17.63;;
75289;SDS011;63883;48.996;20.804;2022-11-24T05:28:00;38.03;;;17.15;;
75289;SDS011;63883;48.996;20.804;2022-11-24T05:30:29;38.60;;;15.95;;
75289;SDS011;63883;48.996;20.804;2022-11-24T05:32:56;24.70;;;11.57;;
75289;SDS011;63883;48.996;20.804;2022-11-24T05:35:22;23.10;;;10.50;;
75289;SDS011;63883;48.996;20.804;2022-11-24T05:37:49;20.23;;;9.55;;
75289;SDS011;63883;48.996;20.804;2022-11-24T05:40:14;19.33;;;9.43;;
75289;SDS011;63883;48.996;20.804;2022-11-24T05:42:40;20.70;;;9.80;;
75289;SDS011;63883;48.996;20.804;2022-11-24T05:45:13;19.58;;;9.93;;
75289;SDS011;63883;48.996;20.804;2022-11-24T05:47:41;21.42;;;10.57;;
75289;SDS011;63883;48.996;20.804;2022-11-24T05:50:08;20.42;;;9.95;;
75289;SDS011;63883;48.996;20.804;2022-11-24T05:52:37;21.17;;;10.38;;
75289;SDS011;63883;48.996;20.804;2022-11-24T05:55:03;27.48;;;12.55;;
75289;SDS011;63883;48.996;20.804;2022-11-24T05:57:30;22.58;;;10.65;;
75289;SDS011;63883;48.996;20.804;2022-11-24T05:59:56;20.88;;;9.93;;
75289;SDS011;63883;48.996;20.804;2022-11-24T06:02:21;19.35;;;10.13;;
75289;SDS011;63883;48.996;20.804;2022-11-24T06:04:47;21.02;;;10.32;;
75289;SDS011;63883;48.996;20.804;2022-11-24T06:07:13;19.52;;;9.90;;
75289;SDS011;63883;48.996;20.804;2022-11-24T06:09:39;21.20;;;10.32;;
75289;SDS011;63883;48.996;20.804;2022-11-24T06:12:06;19.20;;;9.45;;
75289;SDS011;63883;48.996;20.804;2022-11-24T06:14:32;21.10;;;10.05;;
75289;SDS011;63883;48.996;20.804;2022-11-24T06:16:58;19.92;;;10.52;;
75289;SDS011;63883;48.996;20.804;2022-11-24T06:19:24;23.55;;;11.50;;
75289;SDS011;63883;48.996;20.804;2022-11-24T06:21:50;20.45;;;10.30;;
75289;SDS011;63883;48.996;20.804;2022-11-24T06:24:15;21.55;;;10.35;;
75289;SDS011;63883;48.996;20.804;2022-11-24T06:26:41;21.17;;;9.82;;
75289;SDS011;63883;48.996;20.804;2022-11-24T06:29:07;22.95;;;11.38;;
75289;SDS011;63883;48.996;20.804;2022-11-24T06:31:33;19.63;;;9.13;;
75289;SDS011;63883;48.996;20.804;2022-11-24T06:33:59;22.13;;;10.55;;
75289;SDS011;63883;48.996;20.804;2022-11-24T06:36:25;22.13;;;10.70;;
75289;SDS011;63883;48.996;20.804;2022-11-24T06:38:52;20.58;;;9.77;;
75289;SDS011;63883;48.996;20.804;2022-11-24T06:41:18;20.13;;;9.43;;
75289;SDS011;63883;48.996;20.804;2022-11-24T06:43:44;20.27;;;9.55;;
75289;SDS011;63883;48.996;20.804;2022-11-24T06:46:10;24.50;;;11.45;;
75289;SDS011;63883;48.996;20.804;2022-11-24T06:48:37;23.70;;;11.30;;
75289;SDS011;63883;48.996;20.804;2022-11-24T06:51:07;25.40;;;11.85;;
75289;SDS011;63883;48.996;20.804;2022-11-24T06:53:36;29.55;;;13.10;;
75289;SDS011;63883;48.996;20.804;2022-11-24T06:56:07;26.77;;;12.80;;
75289;SDS011;63883;48.996;20.804;2022-11-24T06:58:36;24.55;;;12.20;;
75289;SDS011;63883;48.996;20.804;2022-11-24T07:01:04;26.90;;;12.15;;
75289;SDS011;63883;48.996;20.804;2022-11-24T07:03:31;23.48;;;11.48;;
75289;SDS011;63883;48.996;20.804;2022-11-24T07:05:56;23.63;;;11.43;;
75289;SDS011;63883;48.996;20.804;2022-11-24T07:08:23;23.50;;;11.52;;
75289;SDS011;63883;48.996;20.804;2022-11-24T07:10:49;21.70;;;10.52;;
75289;SDS011;63883;48.996;20.804;2022-11-24T07:13:14;22.73;;;10.20;;
75289;SDS011;63883;48.996;20.804;2022-11-24T07:15:40;19.50;;;10.30;;
75289;SDS011;63883;48.996;20.804;2022-11-24T07:18:06;20.02;;;10.02;;
75289;SDS011;63883;48.996;20.804;2022-11-24T07:20:31;21.65;;;9.55;;
75289;SDS011;63883;48.996;20.804;2022-11-24T07:22:57;21.05;;;10.02;;
75289;SDS011;63883;48.996;20.804;2022-11-24T07:25:26;21.15;;;9.93;;
75289;SDS011;63883;48.996;20.804;2022-11-24T07:27:56;25.30;;;11.27;;
75289;SDS011;63883;48.996;20.804;2022-11-24T07:30:22;21.30;;;10.27;;
75289;SDS011;63883;48.996;20.804;2022-11-24T07:32:49;24.70;;;12.52;;
75289;SDS011;63883;48.996;20.804;2022-11-24T07:35:15;31.98;;;15.05;;
75289;SDS011;63883;48.996;20.804;2022-11-24T07:37:41;25.27;;;12.45;;
75289;SDS011;63883;48.996;20.804;2022-11-24T07:40:06;23.52;;;11.60;;
75289;SDS011;63883;48.996;20.804;2022-11-24T07:42:33;25.20;;;11.60;;
75289;SDS011;63883;48.996;20.804;2022-11-24T07:44:58;27.35;;;13.15;;
75289;SDS011;63883;48.996;20.804;2022-11-24T07:47:24;26.02;;;12.30;;
75289;SDS011;63883;48.996;20.804;2022-11-24T07:49:49;28.63;;;12.85;;
75289;SDS011;63883;48.996;20.804;2022-11-24T07:52:15;27.58;;;12.77;;
75289;SDS011;63883;48.996;20.804;2022-11-24T07:54:41;25.85;;;13.27;;
75289;SDS011;63883;48.996;20.804;2022-11-24T07:57:07;24.85;;;12.70;;
75289;SDS011;63883;48.996;20.804;2022-11-24T07:59:32;24.88;;;12.05;;
75289;SDS011;63883;48.996;20.804;2022-11-24T08:01:58;25.90;;;11.52;;
75289;SDS011;63883;48.996;20.804;2022-11-24T08:04:23;24.08;;;11.85;;
75289;SDS011;63883;48.996;20.804;2022-11-24T08:06:49;26.67;;;12.00;;
75289;SDS011;63883;48.996;20.804;2022-11-24T08:09:15;24.25;;;12.45;;
75289;SDS011;63883;48.996;20.804;2022-11-24T08:11:41;25.13;;;11.63;;
75289;SDS011;63883;48.996;20.804;2022-11-24T08:14:06;24.60;;;12.13;;
75289;SDS011;63883;48.996;20.804;2022-11-24T08:16:32;25.48;;;11.52;;
75289;SDS011;63883;48.996;20.804;2022-11-24T08:18:58;23.15;;;11.77;;
75289;SDS011;63883;48.996;20.804;2022-11-24T08:21:24;24.15;;;12.13;;
75289;SDS011;63883;48.996;20.804;2022-11-24T08:23:53;25.40;;;12.27;;
75289;SDS011;63883;48.996;20.804;2022-11-24T08:26:20;24.65;;;11.80;;
75289;SDS011;63883;48.996;20.804;2022-11-24T08:28:46;22.05;;;10.90;;
75289;SDS011;63883;48.996;20.804;2022-11-24T08:31:16;22.20;;;11.80;;
75289;SDS011;63883;48.996;20.804;2022-11-24T08:33:45;22.95;;;11.63;;
75289;SDS011;63883;48.996;20.804;2022-11-24T08:36:12;25.23;;;13.07;;
75289;SDS011;63883;48.996;20.804;2022-11-24T08:38:39;25.80;;;12.57;;
75289;SDS011;63883;48.996;20.804;2022-11-24T08:41:06;27.20;;;13.32;;
75289;SDS011;63883;48.996;20.804;2022-11-24T08:43:33;28.15;;;12.38;;
75289;SDS011;63883;48.996;20.804;2022-11-24T08:46:00;20.85;;;10.50;;
75289;SDS011;63883;48.996;20.804;2022-11-24T08:48:27;22.70;;;11.25;;
75289;SDS011;63883;48.996;20.804;2022-11-24T08:50:54;23.63;;;12.07;;
75289;SDS011;63883;48.996;20.804;2022-11-24T08:53:20;23.77;;;11.75;;
75289;SDS011;63883;48.996;20.804;2022-11-24T08:55:46;23.75;;;11.80;;
75289;SDS011;63883;48.996;20.804;2022-11-24T08:58:11;23.40;;;12.00;;
75289;SDS011;63883;48.996;20.804;2022-11-24T09:00:37;23.65;;;12.98;;
75289;SDS011;63883;48.996;20.804;2022-11-24T09:03:03;23.13;;;11.43;;
75289;SDS011;63883;48.996;20.804;2022-11-24T09:05:29;24.52;;;12.35;;
75289;SDS011;63883;48.996;20.804;2022-11-24T09:07:54;25.85;;;12.20;;
75289;SDS011;63883;48.996;20.804;2022-11-24T09:10:20;27.65;;;12.57;;
75289;SDS011;63883;48.996;20.804;2022-11-24T09:12:46;25.52;;;12.00;;
75289;SDS011;63883;48.996;20.804;2022-11-24T09:15:12;22.67;;;12.00;;
75289;SDS011;63883;48.996;20.804;2022-11-24T09:17:40;32.80;;;14.38;;
75289;SDS011;63883;48.996;20.804;2022-11-24T09:20:06;32.22;;;14.73;;
75289;SDS011;63883;48.996;20.804;2022-11-24T09:22:32;26.27;;;11.95;;
75289;SDS011;63883;48.996;20.804;2022-11-24T09:24:58;24.17;;;11.68;;
75289;SDS011;63883;48.996;20.804;2022-11-24T09:27:23;21.88;;;10.90;;
75289;SDS011;63883;48.996;20.804;2022-11-24T09:29:49;24.00;;;10.95;;
75289;SDS011;63883;48.996;20.804;2022-11-24T09:32:15;24.90;;;11.27;;
75289;SDS011;63883;48.996;20.804;2022-11-24T09:34:41;24.20;;;11.38;;
75289;SDS011;63883;48.996;20.804;2022-11-24T09:37:06;23.08;;;11.70;;
75289;SDS011;63883;48.996;20.804;2022-11-24T09:39:32;22.25;;;11.52;;
75289;SDS011;63883;48.996;20.804;2022-11-24T10:00:46;25.13;;;11.80;;
75289;SDS011;63883;48.996;20.804;2022-11-24T10:03:15;22.50;;;11.48;;
75289;SDS011;63883;48.996;20.804;2022-11-24T10:05:47;21.42;;;11.50;;
75289;SDS011;63883;48.996;20.804;2022-11-24T10:10:56;25.23;;;11.50;;
75289;SDS011;63883;48.996;20.804;2022-11-24T10:16:17;22.92;;;11.95;;
75289;SDS011;63883;48.996;20.804;2022-11-24T10:27:47;22.77;;;11.95;;
75289;SDS011;63883;48.996;20.804;2022-11-24T10:30:27;24.58;;;12.27;;
75289;SDS011;63883;48.996;20.804;2022-11-24T10:32:57;26.65;;;11.75;;
75289;SDS011;63883;48.996;20.804;2022-11-24T10:35:35;25.30;;;11.57;;
75289;SDS011;63883;48.996;20.804;2022-11-24T10:40:44;25.52;;;12.68;;
75289;SDS011;63883;48.996;20.804;2022-11-24T10:43:16;26.23;;;11.43;;
75289;SDS011;63883;48.996;20.804;2022-11-24T10:45:42;23.63;;;12.43;;
75289;SDS011;63883;48.996;20.804;2022-11-24T10:48:18;25.70;;;12.20;;
75289;SDS011;63883;48.996;20.804;2022-11-24T10:50:48;26.63;;;12.85;;
75289;SDS011;63883;48.996;20.804;2022-11-24T10:53:28;24.83;;;11.80;;
75289;SDS011;63883;48.996;20.804;2022-11-24T10:58:25;23.63;;;11.40;;
75289;SDS011;63883;48.996;20.804;2022-11-24T11:00:54;23.60;;;11.77;;
75289;SDS011;63883;48.996;20.804;2022-11-24T11:03:24;25.85;;;12.40;;
75289;SDS011;63883;48.996;20.804;2022-11-24T11:08:32;27.75;;;12.75;;
75289;SDS011;63883;48.996;20.804;2022-11-24T11:13:49;26.90;;;13.07;;
75289;SDS011;63883;48.996;20.804;2022-11-24T11:16:31;26.13;;;12.15;;
75289;SDS011;63883;48.996;20.804;2022-11-24T11:18:58;30.80;;;13.45;;
75289;SDS011;63883;48.996;20.804;2022-11-24T11:21:30;29.35;;;13.70;;
75289;SDS011;63883;48.996;20.804;2022-11-24T11:24:04;27.80;;;11.95;;
75289;SDS011;63883;48.996;20.804;2022-11-24T11:26:38;25.52;;;11.52;;
75289;SDS011;63883;48.996;20.804;2022-11-24T11:31:32;25.23;;;11.63;;
75289;SDS011;63883;48.996;20.804;2022-11-24T11:34:01;23.80;;;11.77;;
75289;SDS011;63883;48.996;20.804;2022-11-24T11:36:48;25.50;;;12.18;;
75289;SDS011;63883;48.996;20.804;2022-11-24T11:39:33;27.52;;;12.55;;
75289;SDS011;63883;48.996;20.804;2022-11-24T11:42:16;25.50;;;13.15;;
75289;SDS011;63883;48.996;20.804;2022-11-24T11:44:56;26.30;;;12.85;;
75289;SDS011;63883;48.996;20.804;2022-11-24T11:50:24;29.45;;;12.90;;
75289;SDS011;63883;48.996;20.804;2022-11-24T11:52:59;25.15;;;12.23;;
75289;SDS011;63883;48.996;20.804;2022-11-24T12:00:44;26.40;;;13.15;;
75289;SDS011;63883;48.996;20.804;2022-11-24T12:03:18;25.42;;;13.02;;
75289;SDS011;63883;48.996;20.804;2022-11-24T12:06:05;27.70;;;13.50;;
75289;SDS011;63883;48.996;20.804;2022-11-24T12:30:17;29.67;;;13.40;;
75289;SDS011;63883;48.996;20.804;2022-11-24T12:35:44;30.95;;;15.15;;
75289;SDS011;63883;48.996;20.804;2022-11-24T12:43:25;37.05;;;16.67;;
75289;SDS011;63883;48.996;20.804;2022-11-24T12:51:14;109.88;;;36.35;;
75289;SDS011;63883;48.996;20.804;2022-11-24T12:53:43;143.43;;;41.90;;
75289;SDS011;63883;48.996;20.804;2022-11-24T12:56:12;54.80;;;19.38;;
75289;SDS011;63883;48.996;20.804;2022-11-24T12:58:42;32.72;;;13.48;;
75289;SDS011;63883;48.996;20.804;2022-11-24T13:04:14;33.10;;;14.68;;
75289;SDS011;63883;48.996;20.804;2022-11-24T13:07:04;33.55;;;14.95;;
75289;SDS011;63883;48.996;20.804;2022-11-24T13:09:35;28.70;;;13.77;;
75289;SDS011;63883;48.996;20.804;2022-11-24T13:12:10;29.65;;;13.38;;
75289;SDS011;63883;48.996;20.804;2022-11-24T13:14:37;27.25;;;13.15;;
75289;SDS011;63883;48.996;20.804;2022-11-24T13:20:03;33.10;;;14.95;;
75289;SDS011;63883;48.996;20.804;2022-11-24T13:22:39;27.42;;;12.80;;
75289;SDS011;63883;48.996;20.804;2022-11-24T13:25:34;27.17;;;11.95;;
75289;SDS011;63883;48.996;20.804;2022-11-24T13:28:01;25.38;;;12.52;;
75289;SDS011;63883;48.996;20.804;2022-11-24T13:36:27;34.17;;;17.58;;
75289;SDS011;63883;48.996;20.804;2022-11-24T13:41:10;31.30;;;14.68;;
75289;SDS011;63883;48.996;20.804;2022-11-24T13:49:35;27.50;;;14.52;;
75289;SDS011;63883;48.996;20.804;2022-11-24T13:54:59;29.00;;;13.18;;
75289;SDS011;63883;48.996;20.804;2022-11-24T13:57:32;25.00;;;12.23;;
75289;SDS011;63883;48.996;20.804;2022-11-24T14:00:00;34.88;;;16.08;;
75289;SDS011;63883;48.996;20.804;2022-11-24T14:02:27;57.58;;;25.60;;
75289;SDS011;63883;48.996;20.804;2022-11-24T14:04:55;32.15;;;14.18;;
75289;SDS011;63883;48.996;20.804;2022-11-24T14:07:22;30.02;;;13.68;;
75289;SDS011;63883;48.996;20.804;2022-11-24T14:09:49;53.92;;;28.13;;
75289;SDS011;63883;48.996;20.804;2022-11-24T14:12:20;36.45;;;20.08;;
75289;SDS011;63883;48.996;20.804;2022-11-24T14:14:51;30.38;;;14.80;;
75289;SDS011;63883;48.996;20.804;2022-11-24T14:17:22;28.83;;;14.75;;
75289;SDS011;63883;48.996;20.804;2022-11-24T14:19:53;34.10;;;21.00;;
75289;SDS011;63883;48.996;20.804;2022-11-24T14:22:21;33.72;;;22.45;;
75289;SDS011;63883;48.996;20.804;2022-11-24T14:25:00;27.17;;;13.82;;
75289;SDS011;63883;48.996;20.804;2022-11-24T14:29:57;25.60;;;12.00;;
75289;SDS011;63883;48.996;20.804;2022-11-24T14:32:24;25.65;;;11.38;;
75289;SDS011;63883;48.996;20.804;2022-11-24T14:34:51;23.60;;;11.90;;
75289;SDS011;63883;48.996;20.804;2022-11-24T14:37:18;29.92;;;13.23;;
75289;SDS011;63883;48.996;20.804;2022-11-24T14:39:44;31.00;;;14.05;;
75289;SDS011;63883;48.996;20.804;2022-11-24T14:49:45;31.60;;;14.90;;
75289;SDS011;63883;48.996;20.804;2022-11-24T14:52:12;29.20;;;13.85;;
75289;SDS011;63883;48.996;20.804;2022-11-24T14:54:47;32.95;;;15.23;;
75289;SDS011;63883;48.996;20.804;2022-11-24T15:02:40;32.40;;;14.63;;
75289;SDS011;63883;48.996;20.804;2022-11-24T15:05:25;39.58;;;16.23;;
75289;SDS011;63883;48.996;20.804;2022-11-24T15:08:21;41.95;;;20.25;;
75289;SDS011;63883;48.996;20.804;2022-11-24T15:10:54;45.97;;;21.63;;
75289;SDS011;63883;48.996;20.804;2022-11-24T15:13:22;52.22;;;21.85;;
75289;SDS011;63883;48.996;20.804;2022-11-24T15:15:53;84.15;;;27.35;;
75289;SDS011;63883;48.996;20.804;2022-11-24T15:18:35;66.82;;;24.08;;
75289;SDS011;63883;48.996;20.804;2022-11-24T15:21:02;37.13;;;15.52;;
75289;SDS011;63883;48.996;20.804;2022-11-24T15:23:29;141.20;;;40.60;;
75289;SDS011;63883;48.996;20.804;2022-11-24T15:28:25;164.95;;;49.03;;
75289;SDS011;63883;48.996;20.804;2022-11-24T15:30:54;61.78;;;23.25;;
75289;SDS011;63883;48.996;20.804;2022-11-24T15:33:23;40.05;;;16.85;;
75289;SDS011;63883;48.996;20.804;2022-11-24T15:35:49;42.15;;;20.77;;
75289;SDS011;63883;48.996;20.804;2022-11-24T15:38:15;51.80;;;23.48;;
75289;SDS011;63883;48.996;20.804;2022-11-24T15:40:42;61.70;;;26.80;;
75289;SDS011;63883;48.996;20.804;2022-11-24T15:45:41;57.20;;;24.85;;
75289;SDS011;63883;48.996;20.804;2022-11-24T15:48:06;49.22;;;20.52;;
75289;SDS011;63883;48.996;20.804;2022-11-24T15:50:34;46.63;;;19.80;;
75289;SDS011;63883;48.996;20.804;2022-11-24T15:53:00;46.22;;;21.50;;
75289;SDS011;63883;48.996;20.804;2022-11-24T15:55:26;46.67;;;20.75;;
75289;SDS011;63883;48.996;20.804;2022-11-24T15:57:51;43.47;;;19.45;;
75289;SDS011;63883;48.996;20.804;2022-11-24T16:00:18;39.08;;;19.27;;
75289;SDS011;63883;48.996;20.804;2022-11-24T16:02:45;87.50;;;33.42;;
75289;SDS011;63883;48.996;20.804;2022-11-24T16:05:12;80.60;;;29.80;;
75289;SDS011;63883;48.996;20.804;2022-11-24T16:07:39;32.90;;;14.98;;
75289;SDS011;63883;48.996;20.804;2022-11-24T16:10:05;30.38;;;14.40;;
75289;SDS011;63883;48.996;20.804;2022-11-24T16:12:36;31.90;;;14.82;;
75289;SDS011;63883;48.996;20.804;2022-11-24T16:15:02;32.40;;;14.90;;
75289;SDS011;63883;48.996;20.804;2022-11-24T16:17:28;37.78;;;16.40;;
75289;SDS011;63883;48.996;20.804;2022-11-24T16:19:54;45.45;;;19.40;;
75289;SDS011;63883;48.996;20.804;2022-11-24T16:22:20;50.80;;;22.02;;
75289;SDS011;63883;48.996;20.804;2022-11-24T16:24:46;51.13;;;22.75;;
75289;SDS011;63883;48.996;20.804;2022-11-24T16:27:11;53.78;;;24.67;;
75289;SDS011;63883;48.996;20.804;2022-11-24T16:29:37;55.20;;;25.90;;
75289;SDS011;63883;48.996;20.804;2022-11-24T16:32:03;66.68;;;29.13;;
75289;SDS011;63883;48.996;20.804;2022-11-24T16:34:29;55.72;;;24.80;;
75289;SDS011;63883;48.996;20.804;2022-11-24T16:36:54;43.60;;;18.48;;
75289;SDS011;63883;48.996;20.804;2022-11-24T16:39:20;41.75;;;16.88;;